sensor_id;sensor_type;location;lat;lon;timestamp;P1;durP1;ratioP1;P2;durP2;ratioP2
57067;SDS011;43391;47.448;18.904;2023-06-05T00:01:06;6.93;;;4.93;;
57067;SDS011;43391;47.448;18.904;2023-06-05T00:03:31;9.82;;;5.22;;
57067;SDS011;43391;47.448;18.904;2023-06-05T00:05:57;7.03;;;4.47;;
57067;SDS011;43391;47.448;18.904;2023-06-05T00:08:22;8.32;;;4.40;;
57067;SDS011;43391;47.448;18.904;2023-06-05T00:10:48;10.85;;;5.20;;
57067;SDS011;43391;47.448;18.904;2023-06-05T00:13:13;10.07;;;5.25;;
57067;SDS011;43391;47.448;18.904;2023-06-05T00:15:38;8.50;;;5.13;;
57067;SDS011;43391;47.448;18.904;2023-06-05T00:18:04;7.22;;;4.70;;
57067;SDS011;43391;47.448;18.904;2023-06-05T00:20:30;13.32;;;5.00;;
57067;SDS011;43391;47.448;18.904;2023-06-05T00:22:55;5.70;;;4.30;;
57067;SDS011;43391;47.448;18.904;2023-06-05T00:25:20;6.22;;;4.63;;
57067;SDS011;43391;47.448;18.904;2023-06-05T00:27:46;8.38;;;4.55;;
57067;SDS011;43391;47.448;18.904;2023-06-05T00:30:11;6.30;;;4.43;;
57067;SDS011;43391;47.448;18.904;2023-06-05T00:32:37;8.18;;;5.10;;
57067;SDS011;43391;47.448;18.904;2023-06-05T00:35:03;6.38;;;4.50;;
57067;SDS011;43391;47.448;18.904;2023-06-05T00:37:29;7.68;;;4.80;;
57067;SDS011;43391;47.448;18.904;2023-06-05T00:39:55;7.40;;;4.80;;
57067;SDS011;43391;47.448;18.904;2023-06-05T00:42:20;7.43;;;4.80;;
57067;SDS011;43391;47.448;18.904;2023-06-05T00:44:45;8.15;;;4.88;;
57067;SDS011;43391;47.448;18.904;2023-06-05T00:47:13;6.00;;;4.30;;
57067;SDS011;43391;47.448;18.904;2023-06-05T00:49:39;6.72;;;4.18;;
57067;SDS011;43391;47.448;18.904;2023-06-05T00:52:05;9.93;;;4.80;;
57067;SDS011;43391;47.448;18.904;2023-06-05T00:54:31;9.00;;;4.60;;
57067;SDS011;43391;47.448;18.904;2023-06-05T00:56:57;9.30;;;4.75;;
57067;SDS011;43391;47.448;18.904;2023-06-05T00:59:22;8.25;;;5.25;;
57067;SDS011;43391;47.448;18.904;2023-06-05T01:01:48;5.60;;;4.32;;
57067;SDS011;43391;47.448;18.904;2023-06-05T01:04:13;9.55;;;4.50;;
57067;SDS011;43391;47.448;18.904;2023-06-05T01:06:39;8.07;;;4.60;;
57067;SDS011;43391;47.448;18.904;2023-06-05T01:09:08;7.72;;;4.30;;
57067;SDS011;43391;47.448;18.904;2023-06-05T01:19:21;11.13;;;5.13;;
57067;SDS011;43391;47.448;18.904;2023-06-05T01:21:49;8.25;;;4.63;;
57067;SDS011;43391;47.448;18.904;2023-06-05T01:24:15;6.28;;;4.32;;
57067;SDS011;43391;47.448;18.904;2023-06-05T01:29:17;8.63;;;4.60;;
57067;SDS011;43391;47.448;18.904;2023-06-05T01:31:48;8.13;;;4.97;;
57067;SDS011;43391;47.448;18.904;2023-06-05T01:34:21;6.13;;;4.32;;
57067;SDS011;43391;47.448;18.904;2023-06-05T01:36:49;8.13;;;5.15;;
57067;SDS011;43391;47.448;18.904;2023-06-05T01:39:16;7.70;;;5.10;;
57067;SDS011;43391;47.448;18.904;2023-06-05T01:41:43;6.65;;;4.40;;
57067;SDS011;43391;47.448;18.904;2023-06-05T01:44:09;5.50;;;4.47;;
57067;SDS011;43391;47.448;18.904;2023-06-05T01:46:37;6.07;;;4.53;;
57067;SDS011;43391;47.448;18.904;2023-06-05T01:49:03;6.88;;;4.78;;
57067;SDS011;43391;47.448;18.904;2023-06-05T01:51:30;6.80;;;5.00;;
57067;SDS011;43391;47.448;18.904;2023-06-05T01:53:56;7.45;;;4.38;;
57067;SDS011;43391;47.448;18.904;2023-06-05T01:56:22;8.30;;;4.57;;
57067;SDS011;43391;47.448;18.904;2023-06-05T01:58:48;6.40;;;4.65;;
57067;SDS011;43391;47.448;18.904;2023-06-05T02:01:14;6.43;;;5.20;;
57067;SDS011;43391;47.448;18.904;2023-06-05T02:03:41;7.13;;;4.28;;
57067;SDS011;43391;47.448;18.904;2023-06-05T02:06:12;9.00;;;4.72;;
57067;SDS011;43391;47.448;18.904;2023-06-05T02:08:39;8.30;;;4.40;;
57067;SDS011;43391;47.448;18.904;2023-06-05T02:11:04;6.60;;;4.80;;
57067;SDS011;43391;47.448;18.904;2023-06-05T02:13:34;10.90;;;4.53;;
57067;SDS011;43391;47.448;18.904;2023-06-05T02:16:02;8.77;;;5.05;;
57067;SDS011;43391;47.448;18.904;2023-06-05T02:18:28;7.25;;;4.95;;
57067;SDS011;43391;47.448;18.904;2023-06-05T02:20:54;9.52;;;4.75;;
57067;SDS011;43391;47.448;18.904;2023-06-05T02:23:21;5.40;;;4.35;;
57067;SDS011;43391;47.448;18.904;2023-06-05T02:25:46;8.15;;;4.80;;
57067;SDS011;43391;47.448;18.904;2023-06-05T02:28:12;6.35;;;4.30;;
57067;SDS011;43391;47.448;18.904;2023-06-05T02:30:38;15.27;;;6.15;;
57067;SDS011;43391;47.448;18.904;2023-06-05T02:33:03;7.63;;;4.25;;
57067;SDS011;43391;47.448;18.904;2023-06-05T02:35:29;6.97;;;4.78;;
57067;SDS011;43391;47.448;18.904;2023-06-05T02:37:54;6.55;;;4.53;;
57067;SDS011;43391;47.448;18.904;2023-06-05T02:40:21;7.55;;;5.22;;
57067;SDS011;43391;47.448;18.904;2023-06-05T02:42:47;9.10;;;5.57;;
57067;SDS011;43391;47.448;18.904;2023-06-05T02:45:12;10.02;;;5.20;;
57067;SDS011;43391;47.448;18.904;2023-06-05T02:47:38;7.68;;;5.90;;
57067;SDS011;43391;47.448;18.904;2023-06-05T02:50:03;9.05;;;5.50;;
57067;SDS011;43391;47.448;18.904;2023-06-05T02:52:29;10.15;;;5.05;;
57067;SDS011;43391;47.448;18.904;2023-06-05T02:54:59;8.27;;;5.03;;
57067;SDS011;43391;47.448;18.904;2023-06-05T02:57:25;9.38;;;4.70;;
57067;SDS011;43391;47.448;18.904;2023-06-05T02:59:51;8.00;;;5.25;;
57067;SDS011;43391;47.448;18.904;2023-06-05T03:02:17;12.70;;;5.43;;
57067;SDS011;43391;47.448;18.904;2023-06-05T03:04:42;8.70;;;5.05;;
57067;SDS011;43391;47.448;18.904;2023-06-05T03:07:08;8.48;;;5.53;;
57067;SDS011;43391;47.448;18.904;2023-06-05T03:09:34;9.60;;;4.80;;
57067;SDS011;43391;47.448;18.904;2023-06-05T03:12:01;9.63;;;5.55;;
57067;SDS011;43391;47.448;18.904;2023-06-05T03:14:27;11.20;;;6.07;;
57067;SDS011;43391;47.448;18.904;2023-06-05T03:16:52;8.82;;;5.32;;
57067;SDS011;43391;47.448;18.904;2023-06-05T03:19:18;11.07;;;5.38;;
57067;SDS011;43391;47.448;18.904;2023-06-05T03:21:44;8.10;;;5.28;;
57067;SDS011;43391;47.448;18.904;2023-06-05T03:24:10;8.32;;;5.60;;
57067;SDS011;43391;47.448;18.904;2023-06-05T03:26:40;8.48;;;5.43;;
57067;SDS011;43391;47.448;18.904;2023-06-05T03:29:07;8.45;;;5.18;;
57067;SDS011;43391;47.448;18.904;2023-06-05T03:31:33;9.63;;;5.20;;
57067;SDS011;43391;47.448;18.904;2023-06-05T03:33:59;8.10;;;4.85;;
57067;SDS011;43391;47.448;18.904;2023-06-05T03:36:25;6.93;;;5.20;;
57067;SDS011;43391;47.448;18.904;2023-06-05T03:38:52;7.05;;;4.95;;
57067;SDS011;43391;47.448;18.904;2023-06-05T03:41:18;8.43;;;5.63;;
57067;SDS011;43391;47.448;18.904;2023-06-05T03:43:43;9.40;;;5.63;;
57067;SDS011;43391;47.448;18.904;2023-06-05T03:46:08;7.95;;;5.22;;
57067;SDS011;43391;47.448;18.904;2023-06-05T03:48:35;7.85;;;4.93;;
57067;SDS011;43391;47.448;18.904;2023-06-05T03:51:00;11.60;;;5.72;;
57067;SDS011;43391;47.448;18.904;2023-06-05T03:53:26;8.20;;;4.97;;
57067;SDS011;43391;47.448;18.904;2023-06-05T03:55:54;9.38;;;5.13;;
57067;SDS011;43391;47.448;18.904;2023-06-05T03:58:20;9.07;;;4.85;;
57067;SDS011;43391;47.448;18.904;2023-06-05T04:00:46;8.80;;;5.18;;
57067;SDS011;43391;47.448;18.904;2023-06-05T04:03:15;8.40;;;5.18;;
57067;SDS011;43391;47.448;18.904;2023-06-05T04:05:41;7.97;;;5.32;;
57067;SDS011;43391;47.448;18.904;2023-06-05T04:08:07;8.82;;;4.90;;
57067;SDS011;43391;47.448;18.904;2023-06-05T04:10:37;9.07;;;5.78;;
57067;SDS011;43391;47.448;18.904;2023-06-05T04:13:03;9.07;;;5.40;;
57067;SDS011;43391;47.448;18.904;2023-06-05T04:15:29;6.25;;;4.57;;
57067;SDS011;43391;47.448;18.904;2023-06-05T04:17:55;9.77;;;4.95;;
57067;SDS011;43391;47.448;18.904;2023-06-05T04:20:21;11.88;;;5.05;;
57067;SDS011;43391;47.448;18.904;2023-06-05T04:22:47;7.28;;;4.78;;
57067;SDS011;43391;47.448;18.904;2023-06-05T04:25:12;8.57;;;5.15;;
57067;SDS011;43391;47.448;18.904;2023-06-05T04:27:38;10.27;;;4.95;;
57067;SDS011;43391;47.448;18.904;2023-06-05T04:30:05;9.48;;;5.30;;
57067;SDS011;43391;47.448;18.904;2023-06-05T04:32:31;8.18;;;5.07;;
57067;SDS011;43391;47.448;18.904;2023-06-05T04:34:59;8.85;;;5.43;;
57067;SDS011;43391;47.448;18.904;2023-06-05T04:37:25;9.50;;;5.75;;
57067;SDS011;43391;47.448;18.904;2023-06-05T04:39:50;7.47;;;5.20;;
57067;SDS011;43391;47.448;18.904;2023-06-05T04:42:16;10.00;;;4.93;;
57067;SDS011;43391;47.448;18.904;2023-06-05T04:44:42;6.55;;;5.07;;
57067;SDS011;43391;47.448;18.904;2023-06-05T04:47:08;13.05;;;5.68;;
57067;SDS011;43391;47.448;18.904;2023-06-05T04:49:33;10.55;;;5.20;;
57067;SDS011;43391;47.448;18.904;2023-06-05T04:51:59;11.15;;;5.28;;
57067;SDS011;43391;47.448;18.904;2023-06-05T04:54:24;7.93;;;5.30;;
57067;SDS011;43391;47.448;18.904;2023-06-05T04:56:50;8.20;;;5.03;;
57067;SDS011;43391;47.448;18.904;2023-06-05T04:59:17;8.02;;;5.28;;
57067;SDS011;43391;47.448;18.904;2023-06-05T05:01:43;10.10;;;5.15;;
57067;SDS011;43391;47.448;18.904;2023-06-05T05:04:08;10.43;;;5.53;;
57067;SDS011;43391;47.448;18.904;2023-06-05T05:06:34;7.70;;;5.40;;
57067;SDS011;43391;47.448;18.904;2023-06-05T05:08:59;10.20;;;5.57;;
57067;SDS011;43391;47.448;18.904;2023-06-05T05:11:25;8.80;;;5.25;;
57067;SDS011;43391;47.448;18.904;2023-06-05T05:13:51;7.82;;;5.57;;
57067;SDS011;43391;47.448;18.904;2023-06-05T05:16:16;9.50;;;5.75;;
57067;SDS011;43391;47.448;18.904;2023-06-05T05:18:43;6.65;;;5.07;;
57067;SDS011;43391;47.448;18.904;2023-06-05T05:21:09;8.43;;;5.85;;
57067;SDS011;43391;47.448;18.904;2023-06-05T05:23:34;9.30;;;6.30;;
57067;SDS011;43391;47.448;18.904;2023-06-05T05:26:00;12.43;;;5.35;;
57067;SDS011;43391;47.448;18.904;2023-06-05T05:28:26;10.45;;;5.72;;
57067;SDS011;43391;47.448;18.904;2023-06-05T05:30:52;12.52;;;5.78;;
57067;SDS011;43391;47.448;18.904;2023-06-05T05:33:18;9.80;;;5.35;;
57067;SDS011;43391;47.448;18.904;2023-06-05T05:35:46;10.52;;;5.05;;
57067;SDS011;43391;47.448;18.904;2023-06-05T05:38:11;12.68;;;5.30;;
57067;SDS011;43391;47.448;18.904;2023-06-05T05:40:36;9.10;;;5.30;;
57067;SDS011;43391;47.448;18.904;2023-06-05T05:43:02;9.88;;;5.65;;
57067;SDS011;43391;47.448;18.904;2023-06-05T05:45:27;8.70;;;4.93;;
57067;SDS011;43391;47.448;18.904;2023-06-05T05:47:53;18.52;;;5.47;;
57067;SDS011;43391;47.448;18.904;2023-06-05T05:50:18;7.25;;;4.95;;
57067;SDS011;43391;47.448;18.904;2023-06-05T05:52:43;13.82;;;5.65;;
57067;SDS011;43391;47.448;18.904;2023-06-05T05:55:09;9.20;;;5.53;;
57067;SDS011;43391;47.448;18.904;2023-06-05T05:57:35;11.07;;;5.30;;
57067;SDS011;43391;47.448;18.904;2023-06-05T06:00:01;12.07;;;5.00;;
57067;SDS011;43391;47.448;18.904;2023-06-05T06:02:29;12.32;;;5.05;;
57067;SDS011;43391;47.448;18.904;2023-06-05T06:04:54;7.80;;;5.00;;
57067;SDS011;43391;47.448;18.904;2023-06-05T06:07:20;12.23;;;5.65;;
57067;SDS011;43391;47.448;18.904;2023-06-05T06:09:45;8.80;;;5.07;;
57067;SDS011;43391;47.448;18.904;2023-06-05T06:12:11;7.85;;;5.25;;
57067;SDS011;43391;47.448;18.904;2023-06-05T06:14:36;6.70;;;5.15;;
57067;SDS011;43391;47.448;18.904;2023-06-05T06:17:02;10.93;;;5.50;;
57067;SDS011;43391;47.448;18.904;2023-06-05T06:19:30;10.02;;;5.63;;
57067;SDS011;43391;47.448;18.904;2023-06-05T06:21:58;7.85;;;5.05;;
57067;SDS011;43391;47.448;18.904;2023-06-05T06:24:23;7.43;;;4.88;;
57067;SDS011;43391;47.448;18.904;2023-06-05T06:26:49;14.45;;;5.50;;
57067;SDS011;43391;47.448;18.904;2023-06-05T06:29:20;12.52;;;6.20;;
57067;SDS011;43391;47.448;18.904;2023-06-05T06:31:46;13.20;;;5.55;;
57067;SDS011;43391;47.448;18.904;2023-06-05T06:34:12;12.82;;;5.47;;
57067;SDS011;43391;47.448;18.904;2023-06-05T06:36:37;7.47;;;5.18;;
57067;SDS011;43391;47.448;18.904;2023-06-05T06:39:08;11.02;;;5.28;;
57067;SDS011;43391;47.448;18.904;2023-06-05T06:41:34;13.07;;;5.80;;
57067;SDS011;43391;47.448;18.904;2023-06-05T06:44:00;6.80;;;5.18;;
57067;SDS011;43391;47.448;18.904;2023-06-05T06:46:26;8.98;;;5.72;;
57067;SDS011;43391;47.448;18.904;2023-06-05T06:48:52;8.77;;;5.28;;
57067;SDS011;43391;47.448;18.904;2023-06-05T06:51:17;8.27;;;5.10;;
57067;SDS011;43391;47.448;18.904;2023-06-05T06:53:43;11.77;;;5.63;;
57067;SDS011;43391;47.448;18.904;2023-06-05T06:56:09;10.48;;;6.20;;
57067;SDS011;43391;47.448;18.904;2023-06-05T06:58:35;7.80;;;5.15;;
57067;SDS011;43391;47.448;18.904;2023-06-05T07:01:00;13.32;;;5.63;;
57067;SDS011;43391;47.448;18.904;2023-06-05T07:03:26;9.75;;;6.38;;
57067;SDS011;43391;47.448;18.904;2023-06-05T07:05:51;9.27;;;5.90;;
57067;SDS011;43391;47.448;18.904;2023-06-05T07:08:16;8.80;;;5.50;;
57067;SDS011;43391;47.448;18.904;2023-06-05T07:10:42;7.57;;;5.40;;
57067;SDS011;43391;47.448;18.904;2023-06-05T07:13:07;10.02;;;5.05;;
57067;SDS011;43391;47.448;18.904;2023-06-05T07:15:32;15.65;;;6.18;;
57067;SDS011;43391;47.448;18.904;2023-06-05T07:17:58;8.93;;;5.53;;
57067;SDS011;43391;47.448;18.904;2023-06-05T07:20:23;13.00;;;5.50;;
57067;SDS011;43391;47.448;18.904;2023-06-05T07:22:49;11.48;;;5.07;;
57067;SDS011;43391;47.448;18.904;2023-06-05T07:25:14;10.48;;;5.47;;
57067;SDS011;43391;47.448;18.904;2023-06-05T07:27:42;9.50;;;5.32;;
57067;SDS011;43391;47.448;18.904;2023-06-05T07:30:09;8.48;;;5.35;;
57067;SDS011;43391;47.448;18.904;2023-06-05T07:32:35;8.77;;;5.28;;
57067;SDS011;43391;47.448;18.904;2023-06-05T07:35:00;11.02;;;6.15;;
57067;SDS011;43391;47.448;18.904;2023-06-05T07:37:27;9.40;;;5.72;;
57067;SDS011;43391;47.448;18.904;2023-06-05T07:39:52;11.90;;;5.75;;
57067;SDS011;43391;47.448;18.904;2023-06-05T07:42:19;8.48;;;5.47;;
57067;SDS011;43391;47.448;18.904;2023-06-05T07:44:44;11.25;;;5.30;;
57067;SDS011;43391;47.448;18.904;2023-06-05T07:47:09;13.40;;;5.90;;
57067;SDS011;43391;47.448;18.904;2023-06-05T07:49:35;16.67;;;6.15;;
57067;SDS011;43391;47.448;18.904;2023-06-05T07:52:00;19.30;;;6.20;;
57067;SDS011;43391;47.448;18.904;2023-06-05T07:54:26;12.38;;;5.85;;
57067;SDS011;43391;47.448;18.904;2023-06-05T07:56:51;18.42;;;5.65;;
57067;SDS011;43391;47.448;18.904;2023-06-05T07:59:16;19.45;;;6.18;;
57067;SDS011;43391;47.448;18.904;2023-06-05T08:01:47;17.08;;;5.50;;
57067;SDS011;43391;47.448;18.904;2023-06-05T08:04:14;14.20;;;6.90;;
57067;SDS011;43391;47.448;18.904;2023-06-05T08:06:40;26.65;;;6.15;;
57067;SDS011;43391;47.448;18.904;2023-06-05T08:09:06;20.30;;;6.25;;
57067;SDS011;43391;47.448;18.904;2023-06-05T08:11:36;28.15;;;6.13;;
57067;SDS011;43391;47.448;18.904;2023-06-05T08:14:02;32.65;;;7.13;;
57067;SDS011;43391;47.448;18.904;2023-06-05T08:16:28;18.40;;;5.90;;
57067;SDS011;43391;47.448;18.904;2023-06-05T08:18:54;21.88;;;5.90;;
57067;SDS011;43391;47.448;18.904;2023-06-05T08:21:20;13.93;;;5.63;;
57067;SDS011;43391;47.448;18.904;2023-06-05T08:23:45;15.50;;;5.70;;
57067;SDS011;43391;47.448;18.904;2023-06-05T08:26:10;10.05;;;5.40;;
57067;SDS011;43391;47.448;18.904;2023-06-05T08:28:39;17.77;;;5.75;;
57067;SDS011;43391;47.448;18.904;2023-06-05T08:31:06;11.00;;;5.43;;
57067;SDS011;43391;47.448;18.904;2023-06-05T08:33:33;9.30;;;5.65;;
57067;SDS011;43391;47.448;18.904;2023-06-05T08:35:59;10.80;;;6.07;;
57067;SDS011;43391;47.448;18.904;2023-06-05T08:38:24;11.93;;;5.50;;
57067;SDS011;43391;47.448;18.904;2023-06-05T08:40:55;25.15;;;6.28;;
57067;SDS011;43391;47.448;18.904;2023-06-05T08:43:25;23.25;;;6.45;;
57067;SDS011;43391;47.448;18.904;2023-06-05T08:45:54;17.45;;;6.18;;
57067;SDS011;43391;47.448;18.904;2023-06-05T08:48:22;18.98;;;6.18;;
57067;SDS011;43391;47.448;18.904;2023-06-05T08:50:50;13.77;;;5.65;;
57067;SDS011;43391;47.448;18.904;2023-06-05T08:53:17;15.55;;;5.95;;
57067;SDS011;43391;47.448;18.904;2023-06-05T08:55:46;10.30;;;5.90;;
57067;SDS011;43391;47.448;18.904;2023-06-05T08:58:15;16.33;;;6.38;;
57067;SDS011;43391;47.448;18.904;2023-06-05T09:00:41;9.93;;;5.65;;
57067;SDS011;43391;47.448;18.904;2023-06-05T09:03:10;12.00;;;5.90;;
57067;SDS011;43391;47.448;18.904;2023-06-05T09:05:40;9.88;;;5.57;;
57067;SDS011;43391;47.448;18.904;2023-06-05T09:08:05;10.55;;;6.30;;
57067;SDS011;43391;47.448;18.904;2023-06-05T09:10:31;9.77;;;5.60;;
57067;SDS011;43391;47.448;18.904;2023-06-05T09:13:00;10.23;;;5.63;;
57067;SDS011;43391;47.448;18.904;2023-06-05T09:15:29;11.95;;;5.60;;
57067;SDS011;43391;47.448;18.904;2023-06-05T09:18:05;10.60;;;5.82;;
57067;SDS011;43391;47.448;18.904;2023-06-05T09:20:41;14.93;;;6.05;;
57067;SDS011;43391;47.448;18.904;2023-06-05T09:23:22;10.80;;;5.28;;
57067;SDS011;43391;47.448;18.904;2023-06-05T09:25:53;8.75;;;5.05;;
57067;SDS011;43391;47.448;18.904;2023-06-05T09:28:19;11.67;;;5.17;;
57067;SDS011;43391;47.448;18.904;2023-06-05T09:33:22;11.27;;;5.30;;
57067;SDS011;43391;47.448;18.904;2023-06-05T09:36:09;11.95;;;5.47;;
57067;SDS011;43391;47.448;18.904;2023-06-05T09:38:37;9.52;;;4.85;;
57067;SDS011;43391;47.448;18.904;2023-06-05T09:41:05;10.57;;;4.80;;
57067;SDS011;43391;47.448;18.904;2023-06-05T09:43:31;10.93;;;4.88;;
57067;SDS011;43391;47.448;18.904;2023-06-05T09:45:57;7.95;;;4.90;;
57067;SDS011;43391;47.448;18.904;2023-06-05T09:48:23;7.55;;;4.55;;
57067;SDS011;43391;47.448;18.904;2023-06-05T09:50:50;15.90;;;4.63;;
57067;SDS011;43391;47.448;18.904;2023-06-05T09:53:16;7.32;;;4.65;;
57067;SDS011;43391;47.448;18.904;2023-06-05T09:58:13;7.57;;;4.13;;
57067;SDS011;43391;47.448;18.904;2023-06-05T10:00:40;12.27;;;4.03;;
57067;SDS011;43391;47.448;18.904;2023-06-05T10:03:11;10.45;;;4.35;;
57067;SDS011;43391;47.448;18.904;2023-06-05T10:05:39;7.15;;;4.32;;
57067;SDS011;43391;47.448;18.904;2023-06-05T10:08:06;11.23;;;4.63;;
57067;SDS011;43391;47.448;18.904;2023-06-05T10:10:32;13.80;;;4.03;;
57067;SDS011;43391;47.448;18.904;2023-06-05T10:13:00;7.47;;;4.32;;
57067;SDS011;43391;47.448;18.904;2023-06-05T10:15:27;8.52;;;4.38;;
57067;SDS011;43391;47.448;18.904;2023-06-05T10:17:53;8.30;;;4.53;;
57067;SDS011;43391;47.448;18.904;2023-06-05T10:20:21;7.43;;;4.22;;
57067;SDS011;43391;47.448;18.904;2023-06-05T10:22:46;8.85;;;4.63;;
57067;SDS011;43391;47.448;18.904;2023-06-05T10:25:14;8.23;;;4.70;;
57067;SDS011;43391;47.448;18.904;2023-06-05T10:30:46;5.53;;;3.72;;
57067;SDS011;43391;47.448;18.904;2023-06-05T10:33:33;8.05;;;4.18;;
57067;SDS011;43391;47.448;18.904;2023-06-05T10:36:25;12.23;;;4.30;;
57067;SDS011;43391;47.448;18.904;2023-06-05T10:39:06;11.18;;;4.05;;
57067;SDS011;43391;47.448;18.904;2023-06-05T10:41:35;8.85;;;4.07;;
57067;SDS011;43391;47.448;18.904;2023-06-05T10:44:01;6.97;;;3.75;;
57067;SDS011;43391;47.448;18.904;2023-06-05T10:51:44;6.88;;;3.58;;
57067;SDS011;43391;47.448;18.904;2023-06-05T10:54:14;9.15;;;4.07;;
57067;SDS011;43391;47.448;18.904;2023-06-05T10:57:01;5.35;;;3.67;;
57067;SDS011;43391;47.448;18.904;2023-06-05T10:59:31;8.77;;;3.88;;
57067;SDS011;43391;47.448;18.904;2023-06-05T11:07:17;10.40;;;3.58;;
57067;SDS011;43391;47.448;18.904;2023-06-05T11:10:11;22.83;;;4.68;;
57067;SDS011;43391;47.448;18.904;2023-06-05T11:15:14;13.82;;;3.85;;
57067;SDS011;43391;47.448;18.904;2023-06-05T11:20:52;10.20;;;3.88;;
57067;SDS011;43391;47.448;18.904;2023-06-05T11:23:18;11.95;;;3.92;;
57067;SDS011;43391;47.448;18.904;2023-06-05T11:25:43;9.20;;;3.60;;
57067;SDS011;43391;47.448;18.904;2023-06-05T11:28:09;22.13;;;4.78;;
57067;SDS011;43391;47.448;18.904;2023-06-05T11:30:43;9.98;;;4.60;;
57067;SDS011;43391;47.448;18.904;2023-06-05T11:33:13;9.05;;;4.63;;
57067;SDS011;43391;47.448;18.904;2023-06-05T11:35:43;5.95;;;3.72;;
57067;SDS011;43391;47.448;18.904;2023-06-05T11:38:10;4.83;;;3.30;;
57067;SDS011;43391;47.448;18.904;2023-06-05T11:40:40;15.50;;;4.57;;
57067;SDS011;43391;47.448;18.904;2023-06-05T11:43:08;10.68;;;4.20;;
57067;SDS011;43391;47.448;18.904;2023-06-05T11:45:34;13.73;;;4.22;;
57067;SDS011;43391;47.448;18.904;2023-06-05T11:48:08;6.30;;;4.18;;
57067;SDS011;43391;47.448;18.904;2023-06-05T11:50:37;7.28;;;3.90;;
57067;SDS011;43391;47.448;18.904;2023-06-05T11:53:04;9.35;;;3.75;;
57067;SDS011;43391;47.448;18.904;2023-06-05T11:55:31;12.23;;;4.40;;
57067;SDS011;43391;47.448;18.904;2023-06-05T11:58:25;10.15;;;4.05;;
57067;SDS011;43391;47.448;18.904;2023-06-05T12:01:07;8.32;;;4.18;;
57067;SDS011;43391;47.448;18.904;2023-06-05T12:03:37;7.32;;;4.15;;
57067;SDS011;43391;47.448;18.904;2023-06-05T12:06:04;12.82;;;4.63;;
57067;SDS011;43391;47.448;18.904;2023-06-05T12:08:30;12.75;;;4.53;;
57067;SDS011;43391;47.448;18.904;2023-06-05T12:11:00;5.15;;;3.75;;
57067;SDS011;43391;47.448;18.904;2023-06-05T12:13:48;8.00;;;4.13;;
57067;SDS011;43391;47.448;18.904;2023-06-05T12:16:16;6.65;;;4.22;;
57067;SDS011;43391;47.448;18.904;2023-06-05T12:18:43;5.28;;;3.72;;
57067;SDS011;43391;47.448;18.904;2023-06-05T12:21:19;5.50;;;4.00;;
57067;SDS011;43391;47.448;18.904;2023-06-05T12:23:45;6.35;;;4.07;;
57067;SDS011;43391;47.448;18.904;2023-06-05T12:26:11;7.22;;;4.43;;
57067;SDS011;43391;47.448;18.904;2023-06-05T12:28:36;10.30;;;4.43;;
57067;SDS011;43391;47.448;18.904;2023-06-05T12:31:02;8.93;;;3.92;;
57067;SDS011;43391;47.448;18.904;2023-06-05T12:33:28;5.93;;;4.05;;
57067;SDS011;43391;47.448;18.904;2023-06-05T12:36:06;9.02;;;3.90;;
57067;SDS011;43391;47.448;18.904;2023-06-05T12:38:41;10.27;;;4.15;;
57067;SDS011;43391;47.448;18.904;2023-06-05T12:41:07;12.32;;;4.63;;
57067;SDS011;43391;47.448;18.904;2023-06-05T12:43:33;5.53;;;3.97;;
57067;SDS011;43391;47.448;18.904;2023-06-05T12:45:59;9.80;;;4.53;;
57067;SDS011;43391;47.448;18.904;2023-06-05T12:48:24;7.53;;;4.20;;
57067;SDS011;43391;47.448;18.904;2023-06-05T12:50:50;5.32;;;3.80;;
57067;SDS011;43391;47.448;18.904;2023-06-05T12:53:16;7.30;;;4.28;;
57067;SDS011;43391;47.448;18.904;2023-06-05T12:55:41;10.50;;;4.43;;
57067;SDS011;43391;47.448;18.904;2023-06-05T12:58:07;11.73;;;4.15;;
57067;SDS011;43391;47.448;18.904;2023-06-05T13:00:32;10.60;;;4.15;;
57067;SDS011;43391;47.448;18.904;2023-06-05T13:02:59;6.70;;;4.07;;
57067;SDS011;43391;47.448;18.904;2023-06-05T13:05:24;6.55;;;4.25;;
57067;SDS011;43391;47.448;18.904;2023-06-05T13:07:49;5.60;;;3.65;;
57067;SDS011;43391;47.448;18.904;2023-06-05T13:10:17;10.60;;;4.03;;
57067;SDS011;43391;47.448;18.904;2023-06-05T13:12:43;7.38;;;4.38;;
57067;SDS011;43391;47.448;18.904;2023-06-05T13:15:08;4.90;;;3.85;;
57067;SDS011;43391;47.448;18.904;2023-06-05T13:17:34;15.68;;;4.40;;
57067;SDS011;43391;47.448;18.904;2023-06-05T13:20:01;8.77;;;3.97;;
57067;SDS011;43391;47.448;18.904;2023-06-05T13:22:31;7.53;;;3.55;;
57067;SDS011;43391;47.448;18.904;2023-06-05T13:24:56;5.65;;;3.70;;
57067;SDS011;43391;47.448;18.904;2023-06-05T13:27:21;10.07;;;3.45;;
57067;SDS011;43391;47.448;18.904;2023-06-05T13:29:47;4.63;;;3.53;;
57067;SDS011;43391;47.448;18.904;2023-06-05T13:32:12;6.10;;;3.78;;
57067;SDS011;43391;47.448;18.904;2023-06-05T13:34:38;6.90;;;4.00;;
57067;SDS011;43391;47.448;18.904;2023-06-05T13:37:03;5.90;;;3.78;;
57067;SDS011;43391;47.448;18.904;2023-06-05T13:39:28;6.03;;;3.33;;
57067;SDS011;43391;47.448;18.904;2023-06-05T13:41:54;6.85;;;3.80;;
57067;SDS011;43391;47.448;18.904;2023-06-05T13:44:20;7.57;;;4.03;;
57067;SDS011;43391;47.448;18.904;2023-06-05T13:46:45;7.47;;;4.22;;
57067;SDS011;43391;47.448;18.904;2023-06-05T13:49:11;5.95;;;3.55;;
57067;SDS011;43391;47.448;18.904;2023-06-05T13:51:36;8.27;;;3.67;;
57067;SDS011;43391;47.448;18.904;2023-06-05T13:54:03;7.43;;;3.63;;
57067;SDS011;43391;47.448;18.904;2023-06-05T13:56:29;9.70;;;3.92;;
57067;SDS011;43391;47.448;18.904;2023-06-05T13:58:54;8.52;;;4.30;;
57067;SDS011;43391;47.448;18.904;2023-06-05T14:01:20;5.13;;;3.33;;
57067;SDS011;43391;47.448;18.904;2023-06-05T14:03:45;9.27;;;3.72;;
57067;SDS011;43391;47.448;18.904;2023-06-05T14:06:12;8.30;;;4.10;;
57067;SDS011;43391;47.448;18.904;2023-06-05T14:08:38;5.18;;;3.50;;
57067;SDS011;43391;47.448;18.904;2023-06-05T14:11:03;8.27;;;3.60;;
57067;SDS011;43391;47.448;18.904;2023-06-05T14:13:29;6.22;;;3.70;;
57067;SDS011;43391;47.448;18.904;2023-06-05T14:15:54;8.70;;;4.00;;
57067;SDS011;43391;47.448;18.904;2023-06-05T14:18:20;8.65;;;3.80;;
57067;SDS011;43391;47.448;18.904;2023-06-05T14:20:45;7.03;;;3.55;;
57067;SDS011;43391;47.448;18.904;2023-06-05T14:23:11;7.57;;;3.88;;
57067;SDS011;43391;47.448;18.904;2023-06-05T14:25:36;7.28;;;4.18;;
57067;SDS011;43391;47.448;18.904;2023-06-05T14:28:01;9.68;;;3.97;;
57067;SDS011;43391;47.448;18.904;2023-06-05T14:30:27;6.68;;;3.42;;
57067;SDS011;43391;47.448;18.904;2023-06-05T14:32:53;8.32;;;3.90;;
57067;SDS011;43391;47.448;18.904;2023-06-05T14:35:18;6.28;;;3.95;;
57067;SDS011;43391;47.448;18.904;2023-06-05T14:37:45;5.40;;;3.28;;
57067;SDS011;43391;47.448;18.904;2023-06-05T14:40:11;9.32;;;4.13;;
57067;SDS011;43391;47.448;18.904;2023-06-05T14:42:37;7.55;;;3.35;;
57067;SDS011;43391;47.448;18.904;2023-06-05T14:45:03;6.38;;;4.43;;
57067;SDS011;43391;47.448;18.904;2023-06-05T14:47:28;6.72;;;3.72;;
57067;SDS011;43391;47.448;18.904;2023-06-05T14:49:54;13.65;;;3.97;;
57067;SDS011;43391;47.448;18.904;2023-06-05T14:52:19;5.25;;;3.70;;
57067;SDS011;43391;47.448;18.904;2023-06-05T14:54:44;8.27;;;3.92;;
57067;SDS011;43391;47.448;18.904;2023-06-05T14:57:10;8.55;;;3.63;;
57067;SDS011;43391;47.448;18.904;2023-06-05T14:59:35;6.70;;;3.72;;
57067;SDS011;43391;47.448;18.904;2023-06-05T15:02:01;11.02;;;4.13;;
57067;SDS011;43391;47.448;18.904;2023-06-05T15:04:26;8.07;;;3.95;;